createdAt,value
2023-05-10T00:01:17.542Z,3.58
2023-05-10T00:03:46.543Z,3.42
2023-05-10T00:06:15.802Z,3.42
2023-05-10T00:08:44.777Z,3.28
2023-05-10T00:11:13.741Z,4.10
2023-05-10T00:13:42.767Z,3.08
2023-05-10T00:16:14.267Z,3.20
2023-05-10T00:18:43.380Z,2.97
2023-05-10T00:21:12.245Z,2.95
2023-05-10T00:23:41.200Z,3.30
2023-05-10T00:26:10.215Z,3.33
2023-05-10T00:28:40.588Z,3.42
2023-05-10T00:31:09.571Z,3.38
2023-05-10T00:33:40.140Z,3.90
2023-05-10T00:36:09.953Z,4.13
2023-05-10T00:38:39.167Z,3.60
2023-05-10T00:41:08.245Z,3.35
2023-05-10T00:43:39.094Z,3.00
2023-05-10T00:46:08.618Z,2.92
2023-05-10T00:48:39.627Z,3.10
2023-05-10T00:51:08.690Z,3.20
2023-05-10T00:53:37.948Z,3.20
2023-05-10T00:56:07.432Z,3.40
2023-05-10T00:58:36.760Z,2.83
2023-05-10T01:01:07.345Z,2.95
2023-05-10T01:03:36.753Z,2.97
2023-05-10T01:06:07.708Z,3.08
2023-05-10T01:08:36.892Z,3.03
2023-05-10T01:11:05.959Z,3.30
2023-05-10T01:13:38.399Z,3.38
2023-05-10T01:16:08.849Z,3.00
2023-05-10T01:18:42.402Z,2.90
2023-05-10T01:21:23.443Z,2.95
2023-05-10T01:24:29.534Z,3.40
2023-05-10T01:27:28.645Z,3.60
2023-05-10T01:30:28.405Z,2.88
2023-05-10T01:33:04.353Z,2.92
2023-05-10T01:35:39.762Z,2.50
2023-05-10T01:38:25.349Z,3.15
2023-05-10T01:41:08.157Z,2.60
2023-05-10T01:43:50.535Z,2.60
2023-05-10T01:46:26.979Z,2.55
2023-05-10T01:49:01.442Z,2.50
2023-05-10T01:51:38.702Z,2.90
2023-05-10T01:54:10.459Z,2.40
2023-05-10T01:56:41.945Z,2.75
2023-05-10T01:59:20.488Z,3.97
2023-05-10T02:01:51.223Z,3.08
2023-05-10T02:04:24.165Z,3.05
2023-05-10T02:06:56.050Z,3.10
2023-05-10T02:09:27.701Z,2.63
2023-05-10T02:11:59.115Z,2.80
2023-05-10T02:14:29.279Z,3.25
2023-05-10T02:16:59.273Z,2.72
2023-05-10T02:19:32.582Z,2.65
2023-05-10T02:22:04.078Z,2.78
2023-05-10T02:24:37.058Z,2.78
2023-05-10T02:27:06.947Z,2.60
2023-05-10T02:29:36.751Z,2.80
2023-05-10T02:32:06.634Z,2.50
2023-05-10T02:34:37.729Z,3.00
2023-05-10T02:37:07.766Z,3.25
2023-05-10T02:39:37.406Z,2.67
2023-05-10T02:42:07.828Z,2.83
2023-05-10T02:44:39.987Z,2.85
2023-05-10T02:47:09.303Z,3.10
2023-05-10T02:49:39.712Z,3.10
2023-05-10T02:52:10.535Z,3.42
2023-05-10T02:54:46.019Z,4.07
2023-05-10T02:57:20.501Z,3.97
2023-05-10T02:59:49.569Z,3.95
2023-05-10T03:02:19.801Z,7.60
2023-05-10T03:04:50.563Z,5.65
2023-05-10T03:07:22.357Z,3.88
2023-05-10T03:09:52.048Z,3.85
2023-05-10T03:12:29.459Z,2.65
2023-05-10T03:15:05.926Z,2.63
2023-05-10T03:17:43.432Z,2.90
2023-05-10T03:20:22.855Z,2.63
2023-05-10T03:22:55.864Z,2.88
2023-05-10T03:25:25.638Z,3.40
2023-05-10T03:27:56.690Z,2.78
2023-05-10T03:30:27.098Z,3.25
2023-05-10T03:32:56.718Z,2.88
2023-05-10T03:35:27.159Z,3.38
2023-05-10T03:37:56.086Z,3.25
2023-05-10T03:40:25.841Z,3.00
2023-05-10T03:42:54.930Z,3.17
2023-05-10T03:45:24.318Z,3.20
2023-05-10T03:47:53.315Z,3.60
2023-05-10T03:50:23.706Z,3.70
2023-05-10T03:52:54.849Z,3.42
2023-05-10T03:55:24.443Z,2.88
2023-05-10T03:57:54.988Z,3.60
2023-05-10T04:00:25.380Z,3.20
2023-05-10T04:02:57.339Z,2.72
2023-05-10T04:05:26.672Z,3.97
2023-05-10T04:07:57.269Z,2.80
2023-05-10T04:10:26.356Z,3.15
2023-05-10T04:12:55.332Z,3.53
2023-05-10T04:15:24.639Z,2.58
2023-05-10T04:17:54.727Z,2.70
2023-05-10T04:20:24.308Z,2.70
2023-05-10T04:22:53.382Z,2.53
2023-05-10T04:25:23.835Z,2.33
2023-05-10T04:27:52.797Z,2.60
2023-05-10T04:30:22.119Z,2.42
2023-05-10T04:32:51.172Z,2.67
2023-05-10T04:35:20.310Z,2.80
2023-05-10T04:37:50.005Z,3.40
2023-05-10T04:40:19.401Z,2.53
2023-05-10T04:42:49.971Z,2.47
2023-05-10T04:45:19.339Z,2.83
2023-05-10T04:47:48.461Z,1.83
2023-05-10T04:50:17.857Z,2.33
2023-05-10T04:52:47.136Z,2.10
2023-05-10T04:55:16.553Z,2.38
2023-05-10T04:57:46.030Z,2.30
2023-05-10T05:00:17.889Z,2.40
2023-05-10T05:02:47.596Z,2.45
2023-05-10T05:05:17.157Z,2.33
2023-05-10T05:07:46.005Z,2.45
2023-05-10T05:10:15.271Z,2.70
2023-05-10T05:12:44.601Z,2.83
2023-05-10T05:15:13.696Z,2.95
2023-05-10T05:17:44.223Z,2.83
2023-05-10T05:20:14.228Z,2.63
2023-05-10T05:22:43.495Z,2.50
2023-05-10T05:25:12.801Z,2.55
2023-05-10T05:27:41.894Z,2.40
2023-05-10T05:30:12.240Z,3.10
2023-05-10T05:32:41.518Z,2.42
2023-05-10T05:35:12.083Z,2.50
2023-05-10T05:37:44.251Z,2.30
2023-05-10T05:40:41.683Z,2.60
2023-05-10T05:43:11.167Z,2.80
2023-05-10T05:45:40.139Z,2.45
2023-05-10T05:48:10.180Z,2.25
2023-05-10T05:50:40.927Z,2.60
2023-05-10T05:53:10.930Z,2.50
2023-05-10T05:55:39.881Z,2.60
2023-05-10T05:58:08.807Z,2.55
2023-05-10T06:00:38.162Z,14.15
2023-05-10T06:03:08.182Z,3.03
2023-05-10T06:05:37.281Z,2.88
2023-05-10T06:08:08.030Z,3.50
2023-05-10T06:10:39.394Z,3.67
2023-05-10T06:13:09.004Z,3.20
2023-05-10T06:15:38.626Z,2.40
2023-05-10T06:18:08.215Z,3.15
2023-05-10T06:20:37.504Z,12.45
2023-05-10T06:23:10.533Z,18.55
2023-05-10T06:25:39.862Z,3.15
2023-05-10T06:28:09.704Z,3.40
2023-05-10T06:30:39.563Z,11.00
2023-05-10T06:33:10.271Z,5.70
2023-05-10T06:35:41.058Z,2.67
2023-05-10T06:38:12.710Z,2.55
2023-05-10T06:40:45.272Z,2.28
2023-05-10T06:43:15.746Z,2.80
2023-05-10T06:45:45.490Z,2.88
2023-05-10T06:48:15.256Z,2.55
2023-05-10T06:50:48.545Z,3.95
2023-05-10T06:53:21.386Z,2.15
2023-05-10T06:56:00.660Z,2.40
2023-05-10T06:58:30.253Z,2.20
2023-05-10T07:01:06.567Z,2.33
2023-05-10T07:03:37.558Z,2.30
2023-05-10T07:06:21.607Z,2.40
2023-05-10T07:09:05.687Z,2.72
2023-05-10T07:11:35.736Z,2.10
2023-05-10T07:14:05.568Z,2.65
2023-05-10T07:16:36.268Z,2.15
2023-05-10T07:19:07.095Z,2.40
2023-05-10T07:21:37.599Z,2.50
2023-05-10T07:24:09.435Z,2.90
2023-05-10T07:26:40.034Z,2.35
2023-05-10T07:29:10.345Z,2.58
2023-05-10T07:31:45.102Z,2.55
2023-05-10T07:36:44.626Z,2.13
2023-05-10T07:39:24.414Z,1.90
2023-05-10T07:41:58.734Z,1.73
2023-05-10T07:44:28.806Z,2.33
2023-05-10T07:47:01.193Z,2.00
2023-05-10T07:49:36.561Z,2.40
2023-05-10T07:52:07.959Z,2.20
2023-05-10T07:54:54.255Z,2.33
2023-05-10T07:57:25.884Z,1.90
2023-05-10T07:59:57.112Z,1.75
2023-05-10T08:02:26.727Z,1.98
2023-05-10T08:04:56.884Z,2.05
2023-05-10T08:07:29.357Z,2.17
2023-05-10T08:10:03.040Z,1.98
2023-05-10T08:12:32.597Z,1.83
2023-05-10T08:15:01.577Z,1.83
2023-05-10T08:17:32.739Z,1.45
2023-05-10T08:20:04.315Z,1.85
2023-05-10T08:22:33.402Z,1.75
2023-05-10T08:25:03.799Z,1.80
2023-05-10T08:27:34.934Z,1.67
2023-05-10T08:30:04.333Z,1.83
2023-05-10T08:32:36.000Z,2.22
2023-05-10T08:35:05.140Z,1.83
2023-05-10T08:37:34.232Z,1.88
2023-05-10T08:40:05.616Z,1.90
2023-05-10T08:42:39.042Z,2.38
2023-05-10T08:45:10.463Z,2.20
2023-05-10T08:47:40.946Z,1.90
2023-05-10T08:50:10.674Z,2.10
2023-05-10T08:52:41.641Z,2.03
2023-05-10T08:55:12.425Z,1.70
2023-05-10T08:57:52.324Z,1.70
2023-05-10T09:00:24.013Z,1.90
2023-05-10T09:02:53.448Z,1.67
2023-05-10T09:05:22.512Z,2.45
2023-05-10T09:07:51.675Z,1.83
2023-05-10T09:10:22.844Z,1.75
2023-05-10T09:12:54.068Z,2.00
2023-05-10T09:15:26.455Z,1.95
2023-05-10T09:18:00.465Z,2.90
2023-05-10T09:20:29.791Z,2.40
2023-05-10T09:22:58.814Z,2.20
2023-05-10T09:25:29.546Z,2.80
2023-05-10T09:27:58.651Z,3.97
2023-05-10T09:30:29.428Z,2.80
2023-05-10T09:32:59.573Z,2.53
2023-05-10T09:35:30.382Z,2.70
2023-05-10T09:38:03.289Z,1.80
2023-05-10T09:40:34.847Z,2.75
2023-05-10T09:43:07.032Z,2.30
2023-05-10T09:45:39.197Z,1.95
2023-05-10T09:48:09.187Z,2.00
2023-05-10T09:50:38.859Z,1.83
2023-05-10T09:53:07.949Z,1.80
2023-05-10T09:55:56.455Z,1.70
2023-05-10T09:58:26.488Z,1.88
2023-05-10T10:00:58.028Z,1.60
2023-05-10T10:03:33.392Z,1.80
2023-05-10T10:06:09.433Z,2.47
2023-05-10T10:08:42.956Z,2.05
2023-05-10T10:11:13.700Z,2.40
2023-05-10T10:13:42.966Z,2.00
2023-05-10T10:16:12.087Z,2.10
2023-05-10T10:18:43.446Z,1.92
2023-05-10T10:21:13.150Z,2.03
2023-05-10T10:23:42.238Z,1.77
2023-05-10T10:26:17.073Z,1.98
2023-05-10T10:28:54.339Z,2.10
2023-05-10T10:31:35.410Z,1.88
2023-05-10T10:34:09.343Z,1.70
2023-05-10T10:36:54.442Z,1.95
2023-05-10T10:39:24.102Z,1.90
2023-05-10T10:41:56.472Z,2.17
2023-05-10T10:44:40.608Z,1.75
2023-05-10T10:47:32.323Z,2.10
2023-05-10T10:50:10.764Z,2.00
2023-05-10T10:53:02.086Z,1.80
2023-05-10T10:56:10.576Z,1.85
2023-05-10T10:58:46.224Z,1.60
2023-05-10T11:01:20.336Z,2.00
2023-05-10T11:04:20.103Z,2.08
2023-05-10T11:06:49.303Z,2.10
2023-05-10T11:09:20.344Z,1.75
2023-05-10T11:11:59.468Z,1.60
2023-05-10T11:14:34.150Z,2.25
2023-05-10T11:17:26.159Z,2.78
2023-05-10T11:20:33.456Z,1.88
2023-05-10T11:23:22.139Z,1.80
2023-05-10T11:25:57.105Z,2.22
2023-05-10T11:28:29.292Z,1.88
2023-05-10T11:31:00.706Z,2.00
2023-05-10T11:33:30.511Z,2.13
2023-05-10T11:36:04.010Z,2.00
2023-05-10T11:41:06.612Z,1.90
2023-05-10T11:43:37.871Z,2.05
2023-05-10T11:46:18.952Z,1.83
2023-05-10T11:48:49.091Z,1.83
2023-05-10T11:52:37.911Z,2.03
2023-05-10T11:58:06.579Z,1.88
2023-05-10T12:00:40.050Z,2.05
2023-05-10T12:03:15.076Z,2.15
2023-05-10T12:05:46.925Z,1.85
2023-05-10T12:08:17.596Z,2.00
2023-05-10T12:10:46.626Z,2.00
2023-05-10T12:13:16.441Z,1.80
2023-05-10T12:15:46.092Z,2.22
2023-05-10T12:18:17.235Z,1.60
2023-05-10T12:20:46.280Z,1.90
2023-05-10T12:23:15.639Z,1.63
2023-05-10T12:25:45.303Z,1.80
2023-05-10T12:28:14.635Z,1.67
2023-05-10T12:30:46.103Z,1.90
2023-05-10T12:33:19.819Z,2.15
2023-05-10T12:35:52.781Z,1.92
2023-05-10T12:38:32.059Z,1.80
2023-05-10T12:41:02.051Z,2.00
2023-05-10T12:43:34.786Z,2.13
2023-05-10T12:46:17.211Z,2.00
2023-05-10T12:49:00.223Z,1.70
2023-05-10T12:51:46.808Z,1.70
2023-05-10T12:54:15.878Z,1.80
2023-05-10T12:56:45.613Z,1.80
2023-05-10T12:59:15.063Z,1.88
2023-05-10T13:01:46.282Z,2.00
2023-05-10T13:04:17.090Z,1.98
2023-05-10T13:06:46.533Z,1.92
2023-05-10T13:09:16.180Z,1.90
2023-05-10T13:11:46.337Z,1.98
2023-05-10T13:14:35.418Z,1.55
2023-05-10T13:17:23.015Z,1.63
2023-05-10T13:20:02.376Z,2.13
2023-05-10T13:22:39.875Z,2.10
2023-05-10T13:25:10.623Z,1.80
2023-05-10T13:27:40.164Z,1.83
2023-05-10T13:30:11.410Z,1.58
2023-05-10T13:32:41.798Z,1.80
2023-05-10T13:35:13.003Z,1.80
2023-05-10T13:37:45.016Z,2.15
2023-05-10T13:40:14.785Z,2.00
2023-05-10T13:42:44.846Z,1.80
2023-05-10T13:45:14.788Z,1.80
2023-05-10T13:47:48.778Z,1.60
2023-05-10T13:50:21.337Z,1.55
2023-05-10T13:52:50.609Z,1.75
2023-05-10T13:55:20.454Z,1.48
2023-05-10T13:57:50.147Z,1.35
2023-05-10T14:00:23.014Z,1.60
2023-05-10T14:02:53.485Z,1.75
2023-05-10T14:05:30.618Z,1.63
2023-05-10T14:08:01.322Z,1.45
2023-05-10T14:10:47.514Z,1.13
2023-05-10T14:13:21.341Z,1.45
2023-05-10T14:15:58.473Z,1.65
2023-05-10T14:18:29.550Z,2.35
2023-05-10T14:21:09.043Z,1.30
2023-05-10T14:23:38.501Z,1.55
2023-05-10T14:26:08.098Z,1.40
2023-05-10T14:28:37.404Z,1.50
2023-05-10T14:31:12.032Z,1.33
2023-05-10T14:34:46.392Z,1.42
2023-05-10T14:37:17.292Z,1.38
2023-05-10T14:39:46.896Z,1.30
2023-05-10T14:42:19.976Z,1.50
2023-05-10T14:44:49.217Z,3.40
2023-05-10T14:47:20.621Z,1.83
2023-05-10T14:49:53.730Z,1.37
2023-05-10T14:52:34.264Z,1.33
2023-05-10T14:55:17.215Z,1.42
2023-05-10T14:57:51.719Z,1.55
2023-05-10T15:00:21.520Z,1.58
2023-05-10T15:02:51.944Z,10.82
2023-05-10T15:05:21.524Z,2.13
2023-05-10T15:07:52.653Z,1.25
2023-05-10T15:10:22.161Z,1.55
2023-05-10T15:12:52.558Z,1.40
2023-05-10T15:15:33.668Z,1.58
2023-05-10T15:18:07.622Z,1.52
2023-05-10T15:20:37.368Z,1.75
2023-05-10T15:23:08.035Z,1.33
2023-05-10T15:25:38.567Z,1.45
2023-05-10T15:28:10.952Z,1.23
2023-05-10T15:30:45.933Z,1.30
2023-05-10T15:33:16.878Z,1.33
2023-05-10T15:35:46.230Z,1.60
2023-05-10T15:38:25.582Z,1.33
2023-05-10T15:40:58.783Z,1.75
2023-05-10T15:43:30.653Z,1.67
2023-05-10T15:46:00.726Z,1.80
2023-05-10T15:48:33.666Z,1.50
2023-05-10T15:51:14.547Z,1.48
2023-05-10T15:54:05.817Z,1.30
2023-05-10T15:56:39.285Z,1.95
2023-05-10T15:59:10.756Z,1.70
2023-05-10T16:02:16.622Z,1.50
2023-05-10T16:04:52.089Z,2.90
2023-05-10T16:07:21.929Z,1.67
2023-05-10T16:09:53.912Z,1.45
2023-05-10T16:12:27.139Z,1.42
2023-05-10T16:15:00.052Z,2.28
2023-05-10T16:17:29.772Z,1.60
2023-05-10T16:20:00.548Z,1.30
2023-05-10T16:22:32.254Z,1.88
2023-05-10T16:25:06.760Z,1.60
2023-05-10T16:27:38.699Z,1.45
2023-05-10T16:30:22.293Z,1.88
2023-05-10T16:33:02.009Z,1.80
2023-05-10T16:35:37.559Z,1.75
2023-05-10T16:38:07.078Z,1.30
2023-05-10T16:40:40.418Z,1.63
2023-05-10T16:43:09.534Z,1.48
2023-05-10T16:45:38.629Z,1.50
2023-05-10T16:48:10.657Z,1.80
2023-05-10T16:50:41.751Z,1.60
2023-05-10T16:53:12.869Z,1.60
2023-05-10T16:55:49.141Z,1.75
2023-05-10T16:58:18.367Z,1.50
2023-05-10T17:00:48.520Z,2.08
2023-05-10T17:03:18.179Z,1.88
2023-05-10T17:05:47.959Z,1.73
2023-05-10T17:08:28.018Z,1.38
2023-05-10T17:11:03.593Z,1.80
2023-05-10T17:13:33.111Z,1.60
2023-05-10T17:16:04.752Z,2.75
2023-05-10T17:18:34.592Z,1.83
2023-05-10T17:21:03.722Z,2.38
2023-05-10T17:23:33.551Z,1.75
2023-05-10T17:26:06.756Z,1.83
2023-05-10T17:28:38.575Z,2.60
2023-05-10T17:31:08.868Z,1.70
2023-05-10T17:33:38.814Z,1.60
2023-05-10T17:36:10.655Z,1.83
2023-05-10T17:38:40.036Z,1.70
2023-05-10T17:41:10.399Z,1.88
2023-05-10T17:43:39.812Z,1.77
2023-05-10T17:46:09.368Z,2.10
2023-05-10T17:48:41.137Z,1.95
2023-05-10T17:51:12.101Z,1.80
2023-05-10T17:53:43.189Z,1.67
2023-05-10T17:56:16.968Z,1.58
2023-05-10T18:01:17.736Z,1.70
2023-05-10T18:03:46.781Z,5.30
2023-05-10T18:06:17.738Z,2.45
2023-05-10T18:08:51.607Z,1.80
2023-05-10T18:11:24.971Z,2.13
2023-05-10T18:13:54.372Z,1.90
2023-05-10T18:16:23.484Z,2.25
2023-05-10T18:18:53.473Z,2.40
2023-05-10T18:21:22.979Z,2.30
2023-05-10T18:23:52.805Z,2.22
2023-05-10T18:26:22.509Z,2.45
2023-05-10T18:28:55.361Z,2.13
2023-05-10T18:31:24.920Z,2.33
2023-05-10T18:33:54.410Z,2.22
2023-05-10T18:36:24.708Z,2.00
2023-05-10T18:38:53.820Z,2.40
2023-05-10T18:41:23.651Z,3.35
2023-05-10T18:43:54.650Z,5.65
2023-05-10T18:46:24.547Z,3.78
2023-05-10T18:48:54.375Z,2.47
2023-05-10T18:51:23.516Z,1.98
2023-05-10T18:53:53.109Z,2.58
2023-05-10T18:56:23.750Z,2.85
2023-05-10T18:58:54.608Z,2.63
2023-05-10T19:01:24.484Z,2.95
2023-05-10T19:03:54.125Z,3.13
2023-05-10T19:06:23.500Z,2.90
2023-05-10T19:08:52.974Z,2.90
2023-05-10T19:11:23.023Z,3.25
2023-05-10T19:13:54.150Z,3.30
2023-05-10T19:16:24.321Z,3.55
2023-05-10T19:18:54.756Z,3.53
2023-05-10T19:21:25.954Z,3.28
2023-05-10T19:23:56.888Z,3.83
2023-05-10T19:26:29.172Z,3.30
2023-05-10T19:29:07.025Z,3.60
2023-05-10T19:31:36.739Z,3.40
2023-05-10T19:34:06.694Z,3.83
2023-05-10T19:36:36.402Z,3.50
2023-05-10T19:39:05.779Z,3.63
2023-05-10T19:41:34.765Z,6.47
2023-05-10T19:44:05.216Z,4.90
2023-05-10T19:46:34.628Z,3.90
2023-05-10T19:49:04.466Z,3.92
2023-05-10T19:51:44.632Z,3.95
2023-05-10T19:54:14.173Z,4.55
2023-05-10T19:56:43.755Z,4.22
2023-05-10T19:59:14.266Z,4.60
2023-05-10T20:01:43.456Z,5.05
2023-05-10T20:04:12.905Z,4.22
2023-05-10T20:06:42.446Z,4.28
2023-05-10T20:09:13.858Z,4.00
2023-05-10T20:11:43.246Z,4.22
2023-05-10T20:14:14.955Z,4.60
2023-05-10T20:16:46.781Z,5.35
2023-05-10T20:19:17.519Z,4.15
2023-05-10T20:21:46.514Z,6.07
2023-05-10T20:24:15.431Z,4.38
2023-05-10T20:26:44.732Z,5.07
2023-05-10T20:29:17.215Z,4.47
2023-05-10T20:31:46.651Z,5.82
2023-05-10T20:34:15.550Z,5.72
2023-05-10T20:36:44.681Z,5.20
2023-05-10T20:39:17.106Z,5.03
2023-05-10T20:41:46.642Z,4.97
2023-05-10T20:44:17.257Z,5.47
2023-05-10T20:46:48.021Z,5.55
2023-05-10T20:49:17.664Z,5.80
2023-05-10T20:51:46.855Z,5.53
2023-05-10T20:54:16.119Z,5.70
2023-05-10T20:56:45.330Z,6.43
2023-05-10T20:59:14.409Z,7.00
2023-05-10T21:01:45.611Z,6.72
2023-05-10T21:04:14.783Z,5.55
2023-05-10T21:06:44.550Z,6.35
2023-05-10T21:09:13.846Z,6.18
2023-05-10T21:11:43.701Z,5.60
2023-05-10T21:14:12.998Z,5.07
2023-05-10T21:16:44.964Z,5.85
2023-05-10T21:19:17.169Z,5.65
2023-05-10T21:21:46.554Z,5.78
2023-05-10T21:24:16.782Z,5.75
2023-05-10T21:26:47.777Z,6.03
2023-05-10T21:29:23.621Z,5.53
2023-05-10T21:31:53.966Z,6.03
2023-05-10T21:34:29.274Z,6.43
2023-05-10T21:36:59.870Z,5.63
2023-05-10T21:39:29.349Z,6.10
2023-05-10T21:42:00.655Z,5.82
2023-05-10T21:44:30.850Z,5.60
2023-05-10T21:47:00.216Z,6.72
2023-05-10T21:49:30.669Z,6.57
2023-05-10T21:52:01.517Z,6.47
2023-05-10T21:54:30.850Z,6.65
2023-05-10T21:56:59.996Z,6.00
2023-05-10T21:59:29.409Z,6.50
2023-05-10T22:01:58.909Z,5.63
2023-05-10T22:04:31.025Z,6.40
2023-05-10T22:07:00.438Z,5.53
2023-05-10T22:09:48.322Z,6.30
2023-05-10T22:12:17.889Z,6.22
2023-05-10T22:14:56.533Z,5.93
2023-05-10T22:17:36.209Z,6.03
2023-05-10T22:20:08.101Z,6.47
2023-05-10T22:22:38.104Z,5.80
2023-05-10T22:25:08.493Z,6.05
2023-05-10T22:27:37.842Z,6.03
2023-05-10T22:30:09.797Z,6.20
2023-05-10T22:32:38.925Z,6.13
2023-05-10T22:35:10.413Z,6.47
2023-05-10T22:37:39.368Z,6.03
2023-05-10T22:40:10.431Z,5.80
2023-05-10T22:42:40.902Z,6.07
2023-05-10T22:45:11.063Z,6.45
2023-05-10T22:47:40.033Z,7.82
2023-05-10T22:50:15.271Z,6.38
2023-05-10T22:52:44.349Z,7.97
2023-05-10T22:55:13.450Z,8.20
2023-05-10T22:57:42.404Z,7.47
2023-05-10T23:00:12.670Z,6.18
2023-05-10T23:02:45.276Z,6.88
2023-05-10T23:05:15.988Z,6.35
2023-05-10T23:07:45.191Z,5.95
2023-05-10T23:10:14.378Z,5.88
2023-05-10T23:12:43.963Z,6.43
2023-05-10T23:15:13.264Z,6.82
2023-05-10T23:17:43.812Z,6.20
2023-05-10T23:20:16.360Z,5.97
2023-05-10T23:22:46.510Z,7.80
2023-05-10T23:25:15.680Z,7.45
2023-05-10T23:27:44.799Z,8.05
2023-05-10T23:30:14.684Z,8.13
2023-05-10T23:32:51.823Z,7.90
2023-05-10T23:35:22.676Z,7.63
2023-05-10T23:38:02.881Z,8.15
2023-05-10T23:42:03.122Z,7.20
2023-05-10T23:44:23.635Z,7.53
2023-05-10T23:46:54.199Z,7.38
2023-05-10T23:49:23.405Z,8.13
2023-05-10T23:51:55.684Z,6.47
2023-05-10T23:54:24.773Z,8.20
2023-05-10T23:56:54.125Z,7.15
2023-05-10T23:59:23.353Z,8.18
